sensor_id;sensor_type;location;lat;lon;timestamp;temperature;humidity
68658;DHT22;55639;53.480;-2.228;2022-08-19T00:01:37;26.60;44.70
68658;DHT22;55639;53.480;-2.228;2022-08-19T00:04:07;26.60;44.70
68658;DHT22;55639;53.480;-2.228;2022-08-19T00:06:33;26.60;44.70
68658;DHT22;55639;53.480;-2.228;2022-08-19T00:08:59;26.60;44.60
68658;DHT22;55639;53.480;-2.228;2022-08-19T00:11:25;26.60;44.60
68658;DHT22;55639;53.480;-2.228;2022-08-19T00:13:53;26.60;44.60
68658;DHT22;55639;53.480;-2.228;2022-08-19T00:16:20;26.60;44.60
68658;DHT22;55639;53.480;-2.228;2022-08-19T00:18:47;26.60;44.60
68658;DHT22;55639;53.480;-2.228;2022-08-19T00:21:13;26.60;44.60
68658;DHT22;55639;53.480;-2.228;2022-08-19T00:23:40;26.60;44.60
68658;DHT22;55639;53.480;-2.228;2022-08-19T00:26:06;26.60;44.60
68658;DHT22;55639;53.480;-2.228;2022-08-19T00:28:32;26.60;44.70
68658;DHT22;55639;53.480;-2.228;2022-08-19T00:30:59;26.60;44.70
68658;DHT22;55639;53.480;-2.228;2022-08-19T00:33:24;26.60;44.60
68658;DHT22;55639;53.480;-2.228;2022-08-19T00:35:50;26.60;44.60
68658;DHT22;55639;53.480;-2.228;2022-08-19T00:38:16;26.60;44.70
68658;DHT22;55639;53.480;-2.228;2022-08-19T00:40:44;26.60;44.60
68658;DHT22;55639;53.480;-2.228;2022-08-19T00:43:14;26.60;44.50
68658;DHT22;55639;53.480;-2.228;2022-08-19T00:45:43;26.60;44.60
68658;DHT22;55639;53.480;-2.228;2022-08-19T00:48:10;26.60;44.60
68658;DHT22;55639;53.480;-2.228;2022-08-19T00:50:36;26.60;44.50
68658;DHT22;55639;53.480;-2.228;2022-08-19T00:53:06;26.60;44.60
68658;DHT22;55639;53.480;-2.228;2022-08-19T00:55:32;26.60;44.50
68658;DHT22;55639;53.480;-2.228;2022-08-19T00:58:07;26.60;44.50
68658;DHT22;55639;53.480;-2.228;2022-08-19T01:00:34;26.60;44.50
68658;DHT22;55639;53.480;-2.228;2022-08-19T01:03:05;26.60;44.60
68658;DHT22;55639;53.480;-2.228;2022-08-19T01:05:32;26.50;44.40
68658;DHT22;55639;53.480;-2.228;2022-08-19T01:08:01;26.60;44.50
68658;DHT22;55639;53.480;-2.228;2022-08-19T01:10:29;26.50;44.40
68658;DHT22;55639;53.480;-2.228;2022-08-19T01:12:58;26.50;44.40
68658;DHT22;55639;53.480;-2.228;2022-08-19T01:15:27;26.50;44.40
68658;DHT22;55639;53.480;-2.228;2022-08-19T01:17:53;26.50;44.40
68658;DHT22;55639;53.480;-2.228;2022-08-19T01:20:22;26.50;44.30
68658;DHT22;55639;53.480;-2.228;2022-08-19T01:22:51;26.50;44.30
68658;DHT22;55639;53.480;-2.228;2022-08-19T01:25:19;26.50;44.40
68658;DHT22;55639;53.480;-2.228;2022-08-19T01:27:49;26.50;45.00
68658;DHT22;55639;53.480;-2.228;2022-08-19T01:30:28;26.50;44.30
68658;DHT22;55639;53.480;-2.228;2022-08-19T01:32:56;26.50;44.40
68658;DHT22;55639;53.480;-2.228;2022-08-19T01:35:23;26.50;44.30
68658;DHT22;55639;53.480;-2.228;2022-08-19T01:37:59;26.50;44.30
68658;DHT22;55639;53.480;-2.228;2022-08-19T01:40:28;26.50;44.30
68658;DHT22;55639;53.480;-2.228;2022-08-19T01:42:54;26.50;44.30
68658;DHT22;55639;53.480;-2.228;2022-08-19T01:45:22;26.50;44.30
68658;DHT22;55639;53.480;-2.228;2022-08-19T01:47:48;26.50;44.30
68658;DHT22;55639;53.480;-2.228;2022-08-19T01:50:13;26.50;44.30
68658;DHT22;55639;53.480;-2.228;2022-08-19T01:52:41;26.50;44.30
68658;DHT22;55639;53.480;-2.228;2022-08-19T01:55:11;26.50;44.20
68658;DHT22;55639;53.480;-2.228;2022-08-19T01:57:37;26.50;44.30
68658;DHT22;55639;53.480;-2.228;2022-08-19T02:00:07;26.50;44.30
68658;DHT22;55639;53.480;-2.228;2022-08-19T02:02:34;26.50;44.30
68658;DHT22;55639;53.480;-2.228;2022-08-19T02:05:00;26.50;44.20
68658;DHT22;55639;53.480;-2.228;2022-08-19T02:07:25;26.50;44.20
68658;DHT22;55639;53.480;-2.228;2022-08-19T02:09:52;26.50;44.20
68658;DHT22;55639;53.480;-2.228;2022-08-19T02:12:17;26.50;44.20
68658;DHT22;55639;53.480;-2.228;2022-08-19T02:14:43;26.50;44.20
68658;DHT22;55639;53.480;-2.228;2022-08-19T02:17:09;26.50;44.10
68658;DHT22;55639;53.480;-2.228;2022-08-19T02:19:34;26.50;44.20
68658;DHT22;55639;53.480;-2.228;2022-08-19T02:22:00;26.50;44.10
68658;DHT22;55639;53.480;-2.228;2022-08-19T02:24:27;26.50;44.20
68658;DHT22;55639;53.480;-2.228;2022-08-19T02:26:53;26.50;44.10
68658;DHT22;55639;53.480;-2.228;2022-08-19T02:29:19;26.50;44.10
68658;DHT22;55639;53.480;-2.228;2022-08-19T02:31:45;26.40;44.10
68658;DHT22;55639;53.480;-2.228;2022-08-19T02:34:11;26.50;44.10
68658;DHT22;55639;53.480;-2.228;2022-08-19T02:36:36;26.50;44.10
68658;DHT22;55639;53.480;-2.228;2022-08-19T02:39:03;26.40;44.00
68658;DHT22;55639;53.480;-2.228;2022-08-19T02:41:31;26.40;44.00
68658;DHT22;55639;53.480;-2.228;2022-08-19T02:44:00;26.40;44.00
68658;DHT22;55639;53.480;-2.228;2022-08-19T02:46:28;26.40;44.00
68658;DHT22;55639;53.480;-2.228;2022-08-19T02:48:57;26.40;44.00
68658;DHT22;55639;53.480;-2.228;2022-08-19T02:51:27;26.40;44.00
68658;DHT22;55639;53.480;-2.228;2022-08-19T02:53:53;26.40;43.90
68658;DHT22;55639;53.480;-2.228;2022-08-19T02:56:20;26.40;44.00
68658;DHT22;55639;53.480;-2.228;2022-08-19T02:58:47;26.40;44.00
68658;DHT22;55639;53.480;-2.228;2022-08-19T03:01:24;26.40;43.90
68658;DHT22;55639;53.480;-2.228;2022-08-19T03:03:51;26.40;43.90
68658;DHT22;55639;53.480;-2.228;2022-08-19T03:06:17;26.40;43.90
68658;DHT22;55639;53.480;-2.228;2022-08-19T03:08:44;26.40;43.90
68658;DHT22;55639;53.480;-2.228;2022-08-19T03:11:20;26.40;43.90
68658;DHT22;55639;53.480;-2.228;2022-08-19T03:13:46;26.40;44.00
68658;DHT22;55639;53.480;-2.228;2022-08-19T03:16:15;26.40;43.90
68658;DHT22;55639;53.480;-2.228;2022-08-19T03:18:41;26.40;43.90
68658;DHT22;55639;53.480;-2.228;2022-08-19T03:21:08;26.40;43.90
68658;DHT22;55639;53.480;-2.228;2022-08-19T03:23:34;26.40;43.90
68658;DHT22;55639;53.480;-2.228;2022-08-19T03:26:04;26.40;43.90
68658;DHT22;55639;53.480;-2.228;2022-08-19T03:28:30;26.40;43.90
68658;DHT22;55639;53.480;-2.228;2022-08-19T03:31:07;26.30;43.80
68658;DHT22;55639;53.480;-2.228;2022-08-19T03:33:34;26.40;43.90
68658;DHT22;55639;53.480;-2.228;2022-08-19T03:36:20;26.40;43.80
68658;DHT22;55639;53.480;-2.228;2022-08-19T03:38:51;26.40;43.80
68658;DHT22;55639;53.480;-2.228;2022-08-19T03:41:23;26.30;43.80
68658;DHT22;55639;53.480;-2.228;2022-08-19T03:43:50;26.40;43.80
68658;DHT22;55639;53.480;-2.228;2022-08-19T03:46:19;26.30;43.70
68658;DHT22;55639;53.480;-2.228;2022-08-19T03:48:50;26.30;43.70
68658;DHT22;55639;53.480;-2.228;2022-08-19T03:51:39;26.40;43.80
68658;DHT22;55639;53.480;-2.228;2022-08-19T03:54:08;26.30;43.80
68658;DHT22;55639;53.480;-2.228;2022-08-19T03:56:37;26.30;43.80
68658;DHT22;55639;53.480;-2.228;2022-08-19T03:59:03;26.30;44.30
68658;DHT22;55639;53.480;-2.228;2022-08-19T04:01:30;26.30;43.80
68658;DHT22;55639;53.480;-2.228;2022-08-19T04:03:56;26.30;43.70
68658;DHT22;55639;53.480;-2.228;2022-08-19T04:06:25;26.30;43.70
68658;DHT22;55639;53.480;-2.228;2022-08-19T04:08:52;26.30;43.80
68658;DHT22;55639;53.480;-2.228;2022-08-19T04:11:25;26.30;43.70
68658;DHT22;55639;53.480;-2.228;2022-08-19T04:13:51;26.30;43.70
68658;DHT22;55639;53.480;-2.228;2022-08-19T04:16:20;26.30;43.70
68658;DHT22;55639;53.480;-2.228;2022-08-19T04:18:46;26.30;43.70
68658;DHT22;55639;53.480;-2.228;2022-08-19T04:21:24;26.30;43.70
68658;DHT22;55639;53.480;-2.228;2022-08-19T04:23:50;26.30;43.70
68658;DHT22;55639;53.480;-2.228;2022-08-19T04:26:21;26.30;43.70
68658;DHT22;55639;53.480;-2.228;2022-08-19T04:28:48;26.30;43.70
68658;DHT22;55639;53.480;-2.228;2022-08-19T04:31:22;26.30;43.70
68658;DHT22;55639;53.480;-2.228;2022-08-19T04:33:55;26.20;43.60
68658;DHT22;55639;53.480;-2.228;2022-08-19T04:36:24;26.20;43.60
68658;DHT22;55639;53.480;-2.228;2022-08-19T04:38:53;26.20;43.60
68658;DHT22;55639;53.480;-2.228;2022-08-19T04:41:20;26.20;43.60
68658;DHT22;55639;53.480;-2.228;2022-08-19T04:44:04;26.20;43.60
68658;DHT22;55639;53.480;-2.228;2022-08-19T04:46:31;26.20;43.60
68658;DHT22;55639;53.480;-2.228;2022-08-19T04:49:01;26.20;43.60
68658;DHT22;55639;53.480;-2.228;2022-08-19T04:51:27;26.20;43.60
68658;DHT22;55639;53.480;-2.228;2022-08-19T04:53:53;26.20;43.60
68658;DHT22;55639;53.480;-2.228;2022-08-19T04:56:20;26.20;43.60
68658;DHT22;55639;53.480;-2.228;2022-08-19T04:58:48;26.20;43.60
68658;DHT22;55639;53.480;-2.228;2022-08-19T05:01:22;26.20;43.50
68658;DHT22;55639;53.480;-2.228;2022-08-19T05:03:48;26.20;43.50
68658;DHT22;55639;53.480;-2.228;2022-08-19T05:06:16;26.20;43.50
68658;DHT22;55639;53.480;-2.228;2022-08-19T05:08:43;26.20;43.50
68658;DHT22;55639;53.480;-2.228;2022-08-19T05:11:14;26.20;43.50
68658;DHT22;55639;53.480;-2.228;2022-08-19T05:13:40;26.20;43.50
68658;DHT22;55639;53.480;-2.228;2022-08-19T05:16:07;26.20;43.50
68658;DHT22;55639;53.480;-2.228;2022-08-19T05:18:33;26.20;43.50
68658;DHT22;55639;53.480;-2.228;2022-08-19T05:21:18;26.20;43.50
68658;DHT22;55639;53.480;-2.228;2022-08-19T05:24:05;26.20;43.50
68658;DHT22;55639;53.480;-2.228;2022-08-19T05:26:35;26.20;43.50
68658;DHT22;55639;53.480;-2.228;2022-08-19T05:29:02;26.20;43.50
68658;DHT22;55639;53.480;-2.228;2022-08-19T05:31:29;26.10;43.40
68658;DHT22;55639;53.480;-2.228;2022-08-19T05:33:54;26.10;43.40
68658;DHT22;55639;53.480;-2.228;2022-08-19T05:36:21;26.10;43.40
68658;DHT22;55639;53.480;-2.228;2022-08-19T05:38:47;26.10;43.40
68658;DHT22;55639;53.480;-2.228;2022-08-19T05:41:14;26.10;43.40
68658;DHT22;55639;53.480;-2.228;2022-08-19T05:43:40;26.10;43.40
68658;DHT22;55639;53.480;-2.228;2022-08-19T05:46:06;26.20;43.50
68658;DHT22;55639;53.480;-2.228;2022-08-19T05:48:35;26.10;43.40
68658;DHT22;55639;53.480;-2.228;2022-08-19T05:51:07;26.10;43.40
68658;DHT22;55639;53.480;-2.228;2022-08-19T05:53:33;26.20;43.50
68658;DHT22;55639;53.480;-2.228;2022-08-19T05:56:06;26.10;43.40
68658;DHT22;55639;53.480;-2.228;2022-08-19T05:58:33;26.10;43.40
68658;DHT22;55639;53.480;-2.228;2022-08-19T06:00:59;26.10;43.40
68658;DHT22;55639;53.480;-2.228;2022-08-19T06:03:30;26.10;43.50
68658;DHT22;55639;53.480;-2.228;2022-08-19T06:05:56;26.10;43.50
68658;DHT22;55639;53.480;-2.228;2022-08-19T06:08:24;26.10;43.40
68658;DHT22;55639;53.480;-2.228;2022-08-19T06:10:49;26.10;43.40
68658;DHT22;55639;53.480;-2.228;2022-08-19T06:13:15;26.10;43.40
68658;DHT22;55639;53.480;-2.228;2022-08-19T06:15:41;26.10;43.40
68658;DHT22;55639;53.480;-2.228;2022-08-19T06:18:09;26.10;43.40
68658;DHT22;55639;53.480;-2.228;2022-08-19T06:20:35;26.10;43.30
68658;DHT22;55639;53.480;-2.228;2022-08-19T06:23:00;26.10;43.30
68658;DHT22;55639;53.480;-2.228;2022-08-19T06:25:26;26.10;43.30
68658;DHT22;55639;53.480;-2.228;2022-08-19T06:27:51;26.10;43.30
68658;DHT22;55639;53.480;-2.228;2022-08-19T06:30:18;26.10;43.30
68658;DHT22;55639;53.480;-2.228;2022-08-19T06:32:43;26.10;43.30
68658;DHT22;55639;53.480;-2.228;2022-08-19T06:35:09;26.10;43.30
68658;DHT22;55639;53.480;-2.228;2022-08-19T06:37:37;26.10;43.30
68658;DHT22;55639;53.480;-2.228;2022-08-19T06:40:03;26.10;43.30
68658;DHT22;55639;53.480;-2.228;2022-08-19T06:42:28;26.10;43.30
68658;DHT22;55639;53.480;-2.228;2022-08-19T06:44:54;26.10;43.30
68658;DHT22;55639;53.480;-2.228;2022-08-19T06:47:21;26.10;43.30
68658;DHT22;55639;53.480;-2.228;2022-08-19T06:49:47;26.10;43.30
68658;DHT22;55639;53.480;-2.228;2022-08-19T06:52:13;26.10;43.30
68658;DHT22;55639;53.480;-2.228;2022-08-19T06:54:40;26.10;43.30
68658;DHT22;55639;53.480;-2.228;2022-08-19T06:57:07;26.10;43.30
68658;DHT22;55639;53.480;-2.228;2022-08-19T06:59:34;26.10;43.30
68658;DHT22;55639;53.480;-2.228;2022-08-19T07:02:03;26.10;43.30
68658;DHT22;55639;53.480;-2.228;2022-08-19T07:04:33;26.10;43.30
68658;DHT22;55639;53.480;-2.228;2022-08-19T07:07:03;26.10;43.30
68658;DHT22;55639;53.480;-2.228;2022-08-19T07:09:31;26.10;43.30
68658;DHT22;55639;53.480;-2.228;2022-08-19T07:11:57;26.10;43.30
68658;DHT22;55639;53.480;-2.228;2022-08-19T07:14:25;26.10;43.20
68658;DHT22;55639;53.480;-2.228;2022-08-19T07:16:53;26.10;43.20
68658;DHT22;55639;53.480;-2.228;2022-08-19T07:19:25;26.10;43.20
68658;DHT22;55639;53.480;-2.228;2022-08-19T07:21:53;26.10;43.20
68658;DHT22;55639;53.480;-2.228;2022-08-19T07:24:22;26.10;43.20
68658;DHT22;55639;53.480;-2.228;2022-08-19T07:26:50;26.10;43.10
68658;DHT22;55639;53.480;-2.228;2022-08-19T07:29:17;26.10;43.20
68658;DHT22;55639;53.480;-2.228;2022-08-19T07:31:43;26.10;43.20
68658;DHT22;55639;53.480;-2.228;2022-08-19T07:34:11;26.10;43.10
68658;DHT22;55639;53.480;-2.228;2022-08-19T07:36:39;26.00;43.00
68658;DHT22;55639;53.480;-2.228;2022-08-19T07:39:17;26.10;43.10
68658;DHT22;55639;53.480;-2.228;2022-08-19T07:41:44;26.00;43.00
68658;DHT22;55639;53.480;-2.228;2022-08-19T07:44:12;26.00;43.00
68658;DHT22;55639;53.480;-2.228;2022-08-19T07:46:41;26.00;43.00
68658;DHT22;55639;53.480;-2.228;2022-08-19T07:49:07;26.00;43.00
68658;DHT22;55639;53.480;-2.228;2022-08-19T07:51:33;26.00;43.60
68658;DHT22;55639;53.480;-2.228;2022-08-19T07:53:59;26.00;43.00
68658;DHT22;55639;53.480;-2.228;2022-08-19T07:56:25;26.00;43.00
68658;DHT22;55639;53.480;-2.228;2022-08-19T07:58:52;26.00;43.00
68658;DHT22;55639;53.480;-2.228;2022-08-19T08:01:22;26.00;43.00
68658;DHT22;55639;53.480;-2.228;2022-08-19T08:03:49;26.00;43.60
68658;DHT22;55639;53.480;-2.228;2022-08-19T08:06:34;26.00;43.00
68658;DHT22;55639;53.480;-2.228;2022-08-19T08:09:26;26.00;43.00
68658;DHT22;55639;53.480;-2.228;2022-08-19T08:12:00;26.00;43.00
68658;DHT22;55639;53.480;-2.228;2022-08-19T08:14:29;26.00;42.90
68658;DHT22;55639;53.480;-2.228;2022-08-19T08:16:56;26.00;42.90
68658;DHT22;55639;53.480;-2.228;2022-08-19T08:19:23;26.00;42.90
68658;DHT22;55639;53.480;-2.228;2022-08-19T08:21:50;26.00;42.90
68658;DHT22;55639;53.480;-2.228;2022-08-19T08:24:16;26.00;42.90
68658;DHT22;55639;53.480;-2.228;2022-08-19T08:26:43;26.00;42.90
68658;DHT22;55639;53.480;-2.228;2022-08-19T08:29:10;26.00;43.00
68658;DHT22;55639;53.480;-2.228;2022-08-19T08:31:40;26.00;42.90
68658;DHT22;55639;53.480;-2.228;2022-08-19T08:34:06;26.00;42.80
68658;DHT22;55639;53.480;-2.228;2022-08-19T08:36:32;26.00;42.80
68658;DHT22;55639;53.480;-2.228;2022-08-19T08:38:59;26.00;42.80
68658;DHT22;55639;53.480;-2.228;2022-08-19T08:41:37;26.00;42.80
68658;DHT22;55639;53.480;-2.228;2022-08-19T08:44:13;26.00;42.80
68658;DHT22;55639;53.480;-2.228;2022-08-19T08:46:41;26.00;42.80
68658;DHT22;55639;53.480;-2.228;2022-08-19T08:49:45;26.00;42.80
68658;DHT22;55639;53.480;-2.228;2022-08-19T08:52:22;26.00;42.80
68658;DHT22;55639;53.480;-2.228;2022-08-19T08:54:54;26.00;42.80
68658;DHT22;55639;53.480;-2.228;2022-08-19T08:57:36;26.00;42.80
68658;DHT22;55639;53.480;-2.228;2022-08-19T09:00:06;26.00;42.80
68658;DHT22;55639;53.480;-2.228;2022-08-19T09:02:32;25.90;42.80
68658;DHT22;55639;53.480;-2.228;2022-08-19T09:04:58;26.00;42.80
68658;DHT22;55639;53.480;-2.228;2022-08-19T09:07:50;26.00;42.80
68658;DHT22;55639;53.480;-2.228;2022-08-19T09:15:36;25.90;42.60
68658;DHT22;55639;53.480;-2.228;2022-08-19T09:18:04;26.00;42.70
68658;DHT22;55639;53.480;-2.228;2022-08-19T09:20:30;25.90;42.90
68658;DHT22;55639;53.480;-2.228;2022-08-19T09:22:57;25.90;43.70
68658;DHT22;55639;53.480;-2.228;2022-08-19T09:25:24;26.00;43.80
68658;DHT22;55639;53.480;-2.228;2022-08-19T09:27:51;26.00;44.10
68658;DHT22;55639;53.480;-2.228;2022-08-19T09:30:27;26.00;44.30
68658;DHT22;55639;53.480;-2.228;2022-08-19T09:32:54;26.00;44.60
68658;DHT22;55639;53.480;-2.228;2022-08-19T09:35:22;26.00;44.70
68658;DHT22;55639;53.480;-2.228;2022-08-19T09:37:49;26.00;44.70
68658;DHT22;55639;53.480;-2.228;2022-08-19T09:40:15;26.00;44.80
68658;DHT22;55639;53.480;-2.228;2022-08-19T09:42:45;26.00;44.70
68658;DHT22;55639;53.480;-2.228;2022-08-19T09:45:17;26.00;44.80
68658;DHT22;55639;53.480;-2.228;2022-08-19T09:47:43;26.00;45.00
68658;DHT22;55639;53.480;-2.228;2022-08-19T09:50:11;26.00;45.00
68658;DHT22;55639;53.480;-2.228;2022-08-19T09:52:37;26.00;45.10
68658;DHT22;55639;53.480;-2.228;2022-08-19T09:55:08;26.00;45.10
68658;DHT22;55639;53.480;-2.228;2022-08-19T09:57:34;26.00;45.20
68658;DHT22;55639;53.480;-2.228;2022-08-19T10:00:00;26.00;45.30
68658;DHT22;55639;53.480;-2.228;2022-08-19T10:02:25;26.00;45.30
68658;DHT22;55639;53.480;-2.228;2022-08-19T10:04:52;26.00;45.40
68658;DHT22;55639;53.480;-2.228;2022-08-19T10:07:37;26.00;45.50
68658;DHT22;55639;53.480;-2.228;2022-08-19T10:10:06;26.00;45.50
68658;DHT22;55639;53.480;-2.228;2022-08-19T10:12:33;26.00;46.10
68658;DHT22;55639;53.480;-2.228;2022-08-19T10:14:59;26.00;45.90
68658;DHT22;55639;53.480;-2.228;2022-08-19T10:17:26;26.00;46.10
68658;DHT22;55639;53.480;-2.228;2022-08-19T10:19:52;26.00;46.00
68658;DHT22;55639;53.480;-2.228;2022-08-19T10:22:18;26.00;46.00
68658;DHT22;55639;53.480;-2.228;2022-08-19T10:24:45;26.00;45.90
68658;DHT22;55639;53.480;-2.228;2022-08-19T10:27:11;26.10;45.90
68658;DHT22;55639;53.480;-2.228;2022-08-19T10:29:38;26.10;45.90
68658;DHT22;55639;53.480;-2.228;2022-08-19T10:32:06;26.00;45.80
68658;DHT22;55639;53.480;-2.228;2022-08-19T10:34:35;26.10;46.30
68658;DHT22;55639;53.480;-2.228;2022-08-19T10:37:03;26.10;45.80
68658;DHT22;55639;53.480;-2.228;2022-08-19T10:39:32;26.10;45.70
68658;DHT22;55639;53.480;-2.228;2022-08-19T10:41:58;26.10;45.70
68658;DHT22;55639;53.480;-2.228;2022-08-19T10:44:24;26.10;45.60
68658;DHT22;55639;53.480;-2.228;2022-08-19T10:46:50;26.10;45.60
68658;DHT22;55639;53.480;-2.228;2022-08-19T10:49:16;26.10;45.60
68658;DHT22;55639;53.480;-2.228;2022-08-19T10:51:44;26.10;45.60
68658;DHT22;55639;53.480;-2.228;2022-08-19T10:54:28;26.10;45.50
68658;DHT22;55639;53.480;-2.228;2022-08-19T10:57:13;26.10;45.50
68658;DHT22;55639;53.480;-2.228;2022-08-19T10:59:39;26.10;45.50
68658;DHT22;55639;53.480;-2.228;2022-08-19T11:02:08;26.10;45.50
68658;DHT22;55639;53.480;-2.228;2022-08-19T11:04:38;26.10;45.40
68658;DHT22;55639;53.480;-2.228;2022-08-19T11:07:05;26.10;45.40
68658;DHT22;55639;53.480;-2.228;2022-08-19T11:09:31;26.10;45.40
68658;DHT22;55639;53.480;-2.228;2022-08-19T11:11:57;26.10;45.30
68658;DHT22;55639;53.480;-2.228;2022-08-19T11:14:23;26.10;45.30
68658;DHT22;55639;53.480;-2.228;2022-08-19T11:16:51;26.10;45.20
68658;DHT22;55639;53.480;-2.228;2022-08-19T11:19:17;26.10;45.20
68658;DHT22;55639;53.480;-2.228;2022-08-19T11:21:48;26.10;45.10
68658;DHT22;55639;53.480;-2.228;2022-08-19T11:24:20;26.10;45.10
68658;DHT22;55639;53.480;-2.228;2022-08-19T11:26:48;26.20;45.10
68658;DHT22;55639;53.480;-2.228;2022-08-19T11:29:15;26.10;45.00
68658;DHT22;55639;53.480;-2.228;2022-08-19T11:31:44;26.20;45.00
68658;DHT22;55639;53.480;-2.228;2022-08-19T11:34:13;26.20;45.00
68658;DHT22;55639;53.480;-2.228;2022-08-19T11:36:42;26.20;45.00
68658;DHT22;55639;53.480;-2.228;2022-08-19T11:39:09;26.20;44.90
68658;DHT22;55639;53.480;-2.228;2022-08-19T11:41:35;26.20;44.90
68658;DHT22;55639;53.480;-2.228;2022-08-19T11:44:01;26.20;44.80
68658;DHT22;55639;53.480;-2.228;2022-08-19T11:46:28;26.20;44.80
68658;DHT22;55639;53.480;-2.228;2022-08-19T11:48:58;26.20;44.70
68658;DHT22;55639;53.480;-2.228;2022-08-19T11:51:26;26.20;44.70
68658;DHT22;55639;53.480;-2.228;2022-08-19T11:53:53;26.20;45.20
68658;DHT22;55639;53.480;-2.228;2022-08-19T11:56:20;26.20;44.60
68658;DHT22;55639;53.480;-2.228;2022-08-19T11:58:46;26.20;44.50
68658;DHT22;55639;53.480;-2.228;2022-08-19T12:01:14;26.20;44.40
68658;DHT22;55639;53.480;-2.228;2022-08-19T12:03:42;26.20;44.40
68658;DHT22;55639;53.480;-2.228;2022-08-19T12:06:11;26.20;44.40
68658;DHT22;55639;53.480;-2.228;2022-08-19T12:08:42;26.20;44.30
68658;DHT22;55639;53.480;-2.228;2022-08-19T12:11:09;26.20;44.20
68658;DHT22;55639;53.480;-2.228;2022-08-19T12:13:36;26.20;44.10
68658;DHT22;55639;53.480;-2.228;2022-08-19T12:16:10;26.20;43.90
68658;DHT22;55639;53.480;-2.228;2022-08-19T12:18:38;26.20;43.90
68658;DHT22;55639;53.480;-2.228;2022-08-19T12:21:04;26.20;43.70
68658;DHT22;55639;53.480;-2.228;2022-08-19T12:23:30;26.20;43.70
68658;DHT22;55639;53.480;-2.228;2022-08-19T12:25:56;26.20;43.60
68658;DHT22;55639;53.480;-2.228;2022-08-19T12:28:24;26.20;43.50
68658;DHT22;55639;53.480;-2.228;2022-08-19T12:30:50;26.20;43.40
68658;DHT22;55639;53.480;-2.228;2022-08-19T12:33:17;26.20;43.30
68658;DHT22;55639;53.480;-2.228;2022-08-19T12:35:44;26.20;43.30
68658;DHT22;55639;53.480;-2.228;2022-08-19T12:38:11;26.20;43.20
68658;DHT22;55639;53.480;-2.228;2022-08-19T12:40:37;26.20;43.10
68658;DHT22;55639;53.480;-2.228;2022-08-19T12:43:05;26.20;43.00
68658;DHT22;55639;53.480;-2.228;2022-08-19T12:45:31;26.20;42.90
68658;DHT22;55639;53.480;-2.228;2022-08-19T12:47:56;26.30;42.90
68658;DHT22;55639;53.480;-2.228;2022-08-19T12:50:22;26.20;42.80
68658;DHT22;55639;53.480;-2.228;2022-08-19T12:52:49;26.30;42.80
68658;DHT22;55639;53.480;-2.228;2022-08-19T12:55:15;26.20;42.60
68658;DHT22;55639;53.480;-2.228;2022-08-19T12:57:40;26.30;42.60
68658;DHT22;55639;53.480;-2.228;2022-08-19T13:00:09;26.30;42.60
68658;DHT22;55639;53.480;-2.228;2022-08-19T13:02:37;26.30;42.50
68658;DHT22;55639;53.480;-2.228;2022-08-19T13:05:04;26.30;42.50
68658;DHT22;55639;53.480;-2.228;2022-08-19T13:07:32;26.20;42.30
68658;DHT22;55639;53.480;-2.228;2022-08-19T13:09:57;26.30;42.40
68658;DHT22;55639;53.480;-2.228;2022-08-19T13:12:23;26.30;42.40
68658;DHT22;55639;53.480;-2.228;2022-08-19T13:14:52;26.30;42.30
68658;DHT22;55639;53.480;-2.228;2022-08-19T13:17:18;26.20;42.20
68658;DHT22;55639;53.480;-2.228;2022-08-19T13:19:43;26.30;42.20
68658;DHT22;55639;53.480;-2.228;2022-08-19T13:22:09;26.30;42.10
68658;DHT22;55639;53.480;-2.228;2022-08-19T13:24:35;26.30;42.10
68658;DHT22;55639;53.480;-2.228;2022-08-19T13:27:02;26.30;42.10
68658;DHT22;55639;53.480;-2.228;2022-08-19T13:29:27;26.30;42.00
68658;DHT22;55639;53.480;-2.228;2022-08-19T13:32:11;26.30;42.00
68658;DHT22;55639;53.480;-2.228;2022-08-19T13:34:56;26.30;41.90
68658;DHT22;55639;53.480;-2.228;2022-08-19T13:37:21;26.30;41.90
68658;DHT22;55639;53.480;-2.228;2022-08-19T13:40:11;26.30;41.90
68658;DHT22;55639;53.480;-2.228;2022-08-19T13:42:38;26.30;41.90
68658;DHT22;55639;53.480;-2.228;2022-08-19T13:45:05;26.30;41.90
68658;DHT22;55639;53.480;-2.228;2022-08-19T13:47:32;26.30;41.80
68658;DHT22;55639;53.480;-2.228;2022-08-19T13:50:00;26.30;41.80
68658;DHT22;55639;53.480;-2.228;2022-08-19T13:52:26;26.30;41.80
68658;DHT22;55639;53.480;-2.228;2022-08-19T13:54:51;26.30;41.80
68658;DHT22;55639;53.480;-2.228;2022-08-19T13:57:17;26.30;41.80
68658;DHT22;55639;53.480;-2.228;2022-08-19T13:59:42;26.30;41.80
68658;DHT22;55639;53.480;-2.228;2022-08-19T14:02:08;26.30;41.80
68658;DHT22;55639;53.480;-2.228;2022-08-19T14:04:36;26.20;41.70
68658;DHT22;55639;53.480;-2.228;2022-08-19T14:07:02;26.30;41.80
68658;DHT22;55639;53.480;-2.228;2022-08-19T14:09:28;26.20;41.70
68658;DHT22;55639;53.480;-2.228;2022-08-19T14:11:55;26.30;41.70
68658;DHT22;55639;53.480;-2.228;2022-08-19T14:14:20;26.30;41.70
68658;DHT22;55639;53.480;-2.228;2022-08-19T14:16:47;26.30;41.70
68658;DHT22;55639;53.480;-2.228;2022-08-19T14:19:12;26.30;41.70
68658;DHT22;55639;53.480;-2.228;2022-08-19T14:21:38;26.30;41.70
68658;DHT22;55639;53.480;-2.228;2022-08-19T14:24:06;26.30;41.70
68658;DHT22;55639;53.480;-2.228;2022-08-19T14:26:33;26.30;41.90
68658;DHT22;55639;53.480;-2.228;2022-08-19T14:28:59;26.30;42.00
68658;DHT22;55639;53.480;-2.228;2022-08-19T14:31:26;26.30;42.10
68658;DHT22;55639;53.480;-2.228;2022-08-19T14:33:52;26.30;42.20
68658;DHT22;55639;53.480;-2.228;2022-08-19T14:36:19;26.30;42.30
68658;DHT22;55639;53.480;-2.228;2022-08-19T14:38:46;26.30;42.40
68658;DHT22;55639;53.480;-2.228;2022-08-19T14:41:18;26.30;42.40
68658;DHT22;55639;53.480;-2.228;2022-08-19T14:43:47;26.30;42.50
68658;DHT22;55639;53.480;-2.228;2022-08-19T14:46:15;26.30;42.40
68658;DHT22;55639;53.480;-2.228;2022-08-19T14:48:41;26.30;43.20
68658;DHT22;55639;53.480;-2.228;2022-08-19T14:51:07;26.30;42.90
68658;DHT22;55639;53.480;-2.228;2022-08-19T14:53:33;26.40;42.90
68658;DHT22;55639;53.480;-2.228;2022-08-19T14:56:00;26.40;42.60
68658;DHT22;55639;53.480;-2.228;2022-08-19T14:58:26;26.40;41.90
68658;DHT22;55639;53.480;-2.228;2022-08-19T15:00:52;26.40;42.00
68658;DHT22;55639;53.480;-2.228;2022-08-19T15:03:18;26.30;41.70
68658;DHT22;55639;53.480;-2.228;2022-08-19T15:05:43;26.30;41.50
68658;DHT22;55639;53.480;-2.228;2022-08-19T15:08:09;26.30;41.30
68658;DHT22;55639;53.480;-2.228;2022-08-19T15:10:35;26.30;40.90
68658;DHT22;55639;53.480;-2.228;2022-08-19T15:13:01;26.30;40.90
68658;DHT22;55639;53.480;-2.228;2022-08-19T15:15:27;26.30;40.70
68658;DHT22;55639;53.480;-2.228;2022-08-19T15:17:53;26.30;40.50
68658;DHT22;55639;53.480;-2.228;2022-08-19T15:20:20;26.20;40.50
68658;DHT22;55639;53.480;-2.228;2022-08-19T15:22:46;26.30;40.20
68658;DHT22;55639;53.480;-2.228;2022-08-19T15:25:14;26.20;40.20
68658;DHT22;55639;53.480;-2.228;2022-08-19T15:27:40;26.20;40.40